Greeley, NE

5:34 AM CDT on March 23, 2017 (GMT -0500)
Ashton Avenue | | Change Station

Elev 1984 ft 41.49 °N, 98.78 °W | Updated 10 minutes ago

Mostly Cloudy
Mostly Cloudy
45.0 °F
Feels Like 45 °F
N
2.5
Wind Variable Wind from SE
Gusts 8.7 mph

Today
High -- | Low -- °F
--% Chance of Precip.
Yesterday
High -- | Low -- °F
Precip. -- in
Pressure 29.86 in
Visibility 10.0 miles
Clouds Scattered Clouds 2500 ft
Windchill 45 °F
Dew Point 29 °F
Humidity 54%
Rainfall 0.00 in
Snow Depth Not available.
7:31 AM 7:49 PM
Waning Crescent, 24% visible
SPECI KODX 231021Z AUTO 14011KT 10SM SCT025 07/M03 A2986 RMK AO2 T00721028
Pressure 29.86 in
Visibility 10.0 miles
Clouds Scattered Clouds 2500 ft
Windchill 45 °F
Dew Point 29 °F
Humidity 54%
Rainfall 0.00 in
Snow Depth Not available.
7:31 AM 7:49 PM
Waning Crescent, 24% visible
SPECI KODX 231021Z AUTO 14011KT 10SM SCT025 07/M03 A2986 RMK AO2 T00721028

Get Severe Weather Alerts

Thanks for signing up!

Be on the lookout for a verification email in your inbox.

You'll start receiving the daily forecast at 8 AM.

×

10-Day Weather Forecast

Almanac

Astronomy

Mar. 23, 2017 Rise Set
Actual Time
Civil Twilight
Nautical Twilight
Astronomical Twilight
Moon
Length of Visible Light
Length of Day
Tomorrow will be .
, % of the Moon is Illuminated

Today's Extremes

State Highs State Lows

Community

WunderPhotos

Upload Photos

1,962,540 photos uploaded!

WunderBlog® & News

Nearby

Air Quality

  Air Quality AQ Index Pollutant
Not available.

Snow Depth

Station Depth Elevation

Earthquake Activity

City Distance Mag. Time & Date
Minimum magnitude displayed is 2.5.

Earthquake Activity

City Distance Mag. Time & Date
Minimum magnitude displayed is 2.5.

Coastal Water Temperatures

Place Temperature

Stations

Nearby Weather Stations

Station Location Temp. Windchill Dew Point Humidity Wind Precip. Elev Updated Type
                   

Watches & Warnings

There are currently no watches in effect.